Time;durP1;ratioP1;P1;durP2;ratioP2;P2;SDS_P1;SDS_P2;PMS_P1;PMS_P2;Temp;Humidity;BMP_temperature;BMP_pressure;BME280_temperature;BME280_humidity;BME280_pressure;Samples;Min_cycle;Max_cycle;Signal;HPM_P1;HPM_P2
2022/01/06 00:00:32;;;;;;;13.50;2.35;;;;;;;;;;5113506;28;20043;-46
2022/01/06 00:02:58;;;;;;;8.50;2.40;;;;;;;;;;5113122;28;20047;-46
2022/01/06 00:05:24;;;;;;;8.80;1.80;;;;;;;;;;5093617;28;20039;-46
2022/01/06 00:11:14;;;;;;;9.77;2.28;;;;;;;;;;5112497;28;20177;-45
2022/01/06 00:16:58;;;;;;;9.93;1.88;;;;;;;;;;5049642;28;20045;-46
2022/01/06 00:24:57;;;;;;;14.40;2.20;;;;;;;;;;5094202;28;20075;-45
2022/01/06 00:27:23;;;;;;;8.05;1.90;;;;;;;;;;5112231;28;20519;-46
2022/01/06 00:29:49;;;;;;;9.98;2.10;;;;;;;;;;5112037;28;20127;-48
2022/01/06 00:32:15;;;;;;;14.70;2.80;;;;;;;;;;5112331;28;20119;-47
2022/01/06 00:34:41;;;;;;;7.18;2.03;;;;;;;;;;5093727;28;20503;-45
2022/01/06 00:37:13;;;;;;;13.70;2.30;;;;;;;;;;5112384;28;20039;-46
2022/01/06 00:39:51;;;;;;;5.03;1.75;;;;;;;;;;5111797;28;20054;-46
2022/01/06 00:42:20;;;;;;;9.45;2.35;;;;;;;;;;5111741;28;20047;-46
2022/01/06 00:44:54;;;;;;;11.35;2.63;;;;;;;;;;5112674;28;20391;-45
2022/01/06 00:47:51;;;;;;;10.98;2.33;;;;;;;;;;5112425;28;20101;-46
2022/01/06 00:50:18;;;;;;;12.57;2.60;;;;;;;;;;5112378;28;20043;-48
2022/01/06 00:52:46;;;;;;;8.65;2.42;;;;;;;;;;5112265;28;20407;-47
2022/01/06 00:55:32;;;;;;;8.13;2.70;;;;;;;;;;5111788;28;20039;-45
2022/01/06 00:57:59;;;;;;;13.10;2.38;;;;;;;;;;5110548;28;20047;-46
2022/01/06 01:00:41;;;;;;;8.02;1.98;;;;;;;;;;5111231;28;20047;-47
2022/01/06 01:03:25;;;;;;;7.07;2.00;;;;;;;;;;5112033;28;20043;-47
2022/01/06 01:05:53;;;;;;;12.13;2.75;;;;;;;;;;5111071;28;20085;-47
2022/01/06 01:08:23;;;;;;;12.00;2.17;;;;;;;;;;5111432;28;20050;-50
2022/01/06 01:10:50;;;;;;;12.68;2.83;;;;;;;;;;5111438;28;20126;-48
2022/01/06 01:13:28;;;;;;;10.57;2.40;;;;;;;;;;5111643;28;20041;-47
2022/01/06 01:15:56;;;;;;;12.18;2.70;;;;;;;;;;5111733;28;20504;-50
2022/01/06 01:18:23;;;;;;;14.93;2.85;;;;;;;;;;5111575;28;20140;-47
2022/01/06 01:20:50;;;;;;;15.15;3.10;;;;;;;;;;5111701;28;20126;-47
2022/01/06 01:23:18;;;;;;;11.00;2.20;;;;;;;;;;5111492;28;20036;-47
2022/01/06 01:25:50;;;;;;;10.88;2.35;;;;;;;;;;5111490;28;20039;-47
2022/01/06 01:28:17;;;;;;;10.45;2.42;;;;;;;;;;5111002;28;20039;-50
2022/01/06 01:31:19;;;;;;;15.93;2.70;;;;;;;;;;5092859;28;20051;-46
2022/01/06 01:33:49;;;;;;;;;;;;;;;;;;5111553;28;20040;-45
2022/01/06 01:36:17;;;;;;;13.98;3.55;;;;;;;;;;5111415;28;20364;-47
2022/01/06 01:39:03;;;;;;;13.88;2.90;;;;;;;;;;5111357;28;20460;-49
2022/01/06 01:41:30;;;;;;;15.65;3.40;;;;;;;;;;5092046;28;20074;-50
2022/01/06 01:43:59;;;;;;;10.90;3.42;;;;;;;;;;5111027;28;20039;-45
2022/01/06 01:46:30;;;;;;;13.00;3.10;;;;;;;;;;5110318;28;20499;-48
2022/01/06 01:49:16;;;;;;;17.88;3.85;;;;;;;;;;5111347;28;20043;-47
2022/01/06 01:51:46;;;;;;;18.35;3.08;;;;;;;;;;5111026;28;20043;-45
2022/01/06 01:54:18;;;;;;;15.38;3.38;;;;;;;;;;5110868;28;20084;-45
2022/01/06 01:56:47;;;;;;;19.02;3.67;;;;;;;;;;5111043;28;20032;-47
2022/01/06 01:59:13;;;;;;;17.05;3.58;;;;;;;;;;5110891;28;20043;-49
2022/01/06 02:01:42;;;;;;;15.88;3.55;;;;;;;;;;5099365;28;20036;-45
2022/01/06 02:04:11;;;;;;;18.05;3.53;;;;;;;;;;5090898;28;20414;-47
2022/01/06 02:06:37;;;;;;;12.65;3.55;;;;;;;;;;5089944;28;20044;-47
2022/01/06 02:09:11;;;;;;;13.20;3.38;;;;;;;;;;5089907;28;20127;-48
2022/01/06 02:11:37;;;;;;;18.85;3.47;;;;;;;;;;5089653;28;20036;-48
2022/01/06 02:14:05;;;;;;;17.75;3.30;;;;;;;;;;5089743;28;20039;-46
2022/01/06 02:16:32;;;;;;;21.73;3.58;;;;;;;;;;5090405;28;20048;-47
2022/01/06 02:18:58;;;;;;;15.70;2.92;;;;;;;;;;5090439;28;20109;-50
2022/01/06 02:21:24;;;;;;;15.52;3.20;;;;;;;;;;5089700;28;20051;-48
2022/01/06 02:23:53;;;;;;;13.95;3.83;;;;;;;;;;5090679;28;20093;-51
2022/01/06 02:26:20;;;;;;;19.27;3.28;;;;;;;;;;5090380;28;20405;-49
2022/01/06 02:28:55;;;;;;;17.20;3.70;;;;;;;;;;5071117;28;20056;-48
2022/01/06 02:31:28;;;;;;;17.52;3.42;;;;;;;;;;5089566;28;20097;-48
2022/01/06 02:33:57;;;;;;;20.00;3.20;;;;;;;;;;5089246;28;20032;-47
2022/01/06 02:36:29;;;;;;;18.67;2.95;;;;;;;;;;5089429;28;20044;-47
2022/01/06 02:38:55;;;;;;;12.55;3.40;;;;;;;;;;5089574;28;20501;-47
2022/01/06 02:41:24;;;;;;;17.23;3.33;;;;;;;;;;5088961;28;20047;-48
2022/01/06 02:44:07;;;;;;;13.45;3.15;;;;;;;;;;5086699;28;20055;-47
2022/01/06 02:46:40;;;;;;;18.52;3.05;;;;;;;;;;5089491;28;20039;-47
2022/01/06 02:49:06;;;;;;;14.55;2.85;;;;;;;;;;5089540;28;20139;-46
2022/01/06 02:51:32;;;;;;;15.35;3.00;;;;;;;;;;5089251;28;20071;-47
2022/01/06 02:53:59;;;;;;;16.40;3.05;;;;;;;;;;5089529;28;20040;-49
2022/01/06 02:56:25;;;;;;;20.75;3.28;;;;;;;;;;5089549;28;20043;-49
2022/01/06 02:58:56;;;;;;;14.43;2.83;;;;;;;;;;5091708;28;20046;-48
2022/01/06 03:01:22;;;;;;;14.02;2.70;;;;;;;;;;5099587;28;20056;-47
2022/01/06 03:03:48;;;;;;;18.42;3.15;;;;;;;;;;5109812;28;20043;-47
2022/01/06 03:06:15;;;;;;;14.95;3.50;;;;;;;;;;5074898;28;20072;-46
2022/01/06 03:08:41;;;;;;;15.23;2.95;;;;;;;;;;5092959;28;20526;-47
2022/01/06 03:11:10;;;;;;;20.65;3.65;;;;;;;;;;5092655;28;20075;-47
2022/01/06 03:13:37;;;;;;;18.08;3.72;;;;;;;;;;5093030;28;20044;-46
2022/01/06 03:16:06;;;;;;;22.85;3.78;;;;;;;;;;5093088;28;20036;-46
2022/01/06 03:18:32;;;;;;;12.38;3.10;;;;;;;;;;5074940;28;20036;-48
2022/01/06 03:20:59;;;;;;;16.10;3.30;;;;;;;;;;5074364;28;20040;-49
2022/01/06 03:23:25;;;;;;;16.38;3.22;;;;;;;;;;5074760;28;20048;-47
2022/01/06 03:25:54;;;;;;;18.08;3.13;;;;;;;;;;5074737;28;20059;-49
2022/01/06 03:28:21;;;;;;;9.80;2.63;;;;;;;;;;5093098;28;20044;-47
2022/01/06 03:30:50;;;;;;;22.65;3.13;;;;;;;;;;5093579;28;20118;-45
2022/01/06 03:33:18;;;;;;;15.18;2.95;;;;;;;;;;5092899;28;20036;-45
2022/01/06 03:35:44;;;;;;;13.30;3.08;;;;;;;;;;5102465;28;20477;-47
2022/01/06 03:38:10;;;;;;;23.17;4.05;;;;;;;;;;5113666;28;20123;-46
2022/01/06 03:40:40;;;;;;;12.98;2.95;;;;;;;;;;5113257;28;20515;-49
2022/01/06 03:43:06;;;;;;;15.88;3.50;;;;;;;;;;5113414;28;20051;-46
2022/01/06 03:45:33;;;;;;;14.75;3.47;;;;;;;;;;5113447;28;20418;-46
2022/01/06 03:48:03;;;;;;;20.33;3.72;;;;;;;;;;5113458;28;20043;-48
2022/01/06 03:50:33;;;;;;;16.80;3.20;;;;;;;;;;5113137;28;20096;-46
2022/01/06 03:52:59;;;;;;;19.85;4.15;;;;;;;;;;5094793;28;20484;-46
2022/01/06 03:55:26;;;;;;;17.50;3.75;;;;;;;;;;5112994;28;20035;-46
2022/01/06 03:57:53;;;;;;;16.95;2.80;;;;;;;;;;5113313;28;20039;-45
2022/01/06 04:00:20;;;;;;;20.52;3.38;;;;;;;;;;5113171;28;20035;-46
2022/01/06 04:02:47;;;;;;;12.63;2.75;;;;;;;;;;5112618;28;20036;-47
2022/01/06 04:05:16;;;;;;;17.45;3.72;;;;;;;;;;5113174;28;20392;-45
2022/01/06 04:07:45;;;;;;;12.65;2.70;;;;;;;;;;5094415;28;20035;-44
2022/01/06 04:10:13;;;;;;;12.10;2.40;;;;;;;;;;5093934;28;20054;-45
2022/01/06 04:12:40;;;;;;;11.32;3.00;;;;;;;;;;5112773;28;20040;-48
2022/01/06 04:15:15;;;;;;;12.65;2.90;;;;;;;;;;5113404;28;20070;-46
2022/01/06 04:17:42;;;;;;;12.05;2.55;;;;;;;;;;5112864;28;20043;-46
2022/01/06 04:20:08;;;;;;;10.43;2.60;;;;;;;;;;5094498;28;20039;-48
2022/01/06 04:22:35;;;;;;;12.48;2.67;;;;;;;;;;5112959;28;20067;-49
2022/01/06 04:25:01;;;;;;;16.35;3.47;;;;;;;;;;5113165;28;20082;-48
2022/01/06 04:27:27;;;;;;;9.52;2.33;;;;;;;;;;5112465;28;20036;-51
2022/01/06 04:29:56;;;;;;;12.77;2.17;;;;;;;;;;5112401;28;20109;-49
2022/01/06 04:32:23;;;;;;;10.07;2.35;;;;;;;;;;5112443;28;20035;-47
2022/01/06 04:34:49;;;;;;;14.35;3.42;;;;;;;;;;5111959;28;20122;-49
2022/01/06 04:37:15;;;;;;;10.05;2.80;;;;;;;;;;5112389;28;20114;-48
2022/01/06 04:39:46;;;;;;;16.65;2.70;;;;;;;;;;5112415;28;20039;-49
2022/01/06 04:42:12;;;;;;;23.75;3.10;;;;;;;;;;5112145;28;20039;-47
2022/01/06 04:44:40;;;;;;;18.48;3.20;;;;;;;;;;5112225;28;20036;-51
2022/01/06 04:47:06;;;;;;;9.60;2.30;;;;;;;;;;5112295;28;20540;-51
2022/01/06 04:49:32;;;;;;;10.82;2.63;;;;;;;;;;5111618;28;20507;-51
2022/01/06 04:51:58;;;;;;;12.05;2.42;;;;;;;;;;5100063;28;20036;-48
2022/01/06 04:54:27;;;;;;;15.35;2.85;;;;;;;;;;5091954;28;20374;-49
2022/01/06 04:56:53;;;;;;;10.35;3.17;;;;;;;;;;5091663;28;20036;-48
2022/01/06 04:59:23;;;;;;;12.18;2.70;;;;;;;;;;5091468;28;20040;-47
2022/01/06 05:01:49;;;;;;;13.85;3.00;;;;;;;;;;5073118;28;20040;-48
2022/01/06 05:04:15;;;;;;;10.95;2.85;;;;;;;;;;5091237;28;20040;-48
2022/01/06 05:06:44;;;;;;;11.60;2.55;;;;;;;;;;5091076;28;20040;-48
2022/01/06 05:09:11;;;;;;;12.85;3.08;;;;;;;;;;5073017;28;20077;-47
2022/01/06 05:11:40;;;;;;;10.82;2.47;;;;;;;;;;5091573;28;20480;-47
2022/01/06 05:14:06;;;;;;;10.40;3.15;;;;;;;;;;5091017;28;20044;-47
2022/01/06 05:16:32;;;;;;;10.85;2.47;;;;;;;;;;5091024;28;20703;-48
2022/01/06 05:19:01;;;;;;;9.85;2.05;;;;;;;;;;5093816;28;20043;-48
2022/01/06 05:21:30;;;;;;;9.35;3.00;;;;;;;;;;5104137;28;20077;-48
2022/01/06 05:24:10;;;;;;;18.13;3.38;;;;;;;;;;5111569;28;20118;-47
2022/01/06 05:26:38;;;;;;;9.77;2.35;;;;;;;;;;5102676;28;20078;-46
2022/01/06 05:29:06;;;;;;;11.43;2.65;;;;;;;;;;5072741;28;20052;-45
2022/01/06 05:31:32;;;;;;;10.02;2.85;;;;;;;;;;5093643;28;20066;-46
2022/01/06 05:34:13;;;;;;;16.00;3.40;;;;;;;;;;5089191;28;20035;-45
2022/01/06 05:36:48;;;;;;;11.45;2.90;;;;;;;;;;5090034;28;20491;-45
2022/01/06 05:39:15;;;;;;;14.38;3.97;;;;;;;;;;5071329;28;20043;-45
2022/01/06 05:41:45;;;;;;;12.32;3.60;;;;;;;;;;5088721;28;20070;-45
2022/01/06 05:44:11;;;;;;;10.15;2.35;;;;;;;;;;5075854;28;20420;-45
2022/01/06 05:46:37;;;;;;;9.55;2.47;;;;;;;;;;5090978;28;20381;-46
2022/01/06 05:49:03;;;;;;;11.52;3.42;;;;;;;;;;5099985;28;20039;-46
2022/01/06 05:51:35;;;;;;;13.75;3.53;;;;;;;;;;5088362;28;20032;-45
2022/01/06 05:54:04;;;;;;;12.60;2.85;;;;;;;;;;5089733;28;20032;-45
2022/01/06 05:56:30;;;;;;;15.40;3.80;;;;;;;;;;5089653;28;20040;-45
2022/01/06 05:58:56;;;;;;;10.48;3.33;;;;;;;;;;5089576;28;20075;-46
2022/01/06 06:01:25;;;;;;;10.15;2.65;;;;;;;;;;5089044;28;20040;-46
2022/01/06 06:03:53;;;;;;;13.77;2.95;;;;;;;;;;5089480;28;20141;-46
2022/01/06 06:06:20;;;;;;;10.18;2.67;;;;;;;;;;5089182;28;20429;-46
2022/01/06 06:08:55;;;;;;;10.27;2.50;;;;;;;;;;5089475;28;20051;-47
2022/01/06 06:11:23;;;;;;;13.15;3.00;;;;;;;;;;5088592;28;20033;-46
2022/01/06 06:13:49;;;;;;;11.75;2.72;;;;;;;;;;5089625;28;20489;-46
2022/01/06 06:16:16;;;;;;;10.20;3.45;;;;;;;;;;5089574;28;20123;-46
2022/01/06 06:18:51;;;;;;;15.63;3.83;;;;;;;;;;5089384;28;20113;-46
2022/01/06 06:21:28;;;;;;;15.82;2.97;;;;;;;;;;5088774;28;20044;-46
2022/01/06 06:23:54;;;;;;;11.75;4.45;;;;;;;;;;5089741;28;20033;-45
2022/01/06 06:26:21;;;;;;;13.75;2.67;;;;;;;;;;5090193;28;20070;-46
2022/01/06 06:28:50;;;;;;;10.50;2.60;;;;;;;;;;5091492;28;20046;-45
2022/01/06 06:31:19;;;;;;;10.07;2.80;;;;;;;;;;5092322;28;20481;-46
2022/01/06 06:33:45;;;;;;;9.02;2.33;;;;;;;;;;5092930;28;20097;-45
2022/01/06 06:36:11;;;;;;;11.10;3.08;;;;;;;;;;5100396;28;20127;-47
2022/01/06 06:38:37;;;;;;;13.55;3.20;;;;;;;;;;5096785;28;20043;-47
2022/01/06 06:41:03;;;;;;;9.65;3.08;;;;;;;;;;5075535;28;20044;-48
2022/01/06 06:43:29;;;;;;;8.52;2.03;;;;;;;;;;5094034;28;20438;-46
2022/01/06 06:45:55;;;;;;;13.10;3.08;;;;;;;;;;5074855;28;20036;-46
2022/01/06 06:48:22;;;;;;;15.95;3.10;;;;;;;;;;5074835;28;20087;-47
2022/01/06 06:50:48;;;;;;;21.13;4.13;;;;;;;;;;5092823;28;20048;-46
2022/01/06 06:53:14;;;;;;;7.22;2.60;;;;;;;;;;5092600;28;20039;-49
2022/01/06 06:55:40;;;;;;;11.90;2.58;;;;;;;;;;5092919;28;20493;-46
2022/01/06 06:58:06;;;;;;;10.10;2.88;;;;;;;;;;5092690;28;20044;-46
2022/01/06 07:00:33;;;;;;;9.65;2.47;;;;;;;;;;5093036;28;20505;-47
2022/01/06 07:02:59;;;;;;;10.55;2.33;;;;;;;;;;5092907;28;20047;-46
2022/01/06 07:05:25;;;;;;;15.65;3.00;;;;;;;;;;5093194;28;20050;-45
2022/01/06 07:07:51;;;;;;;12.10;2.47;;;;;;;;;;5093206;28;20080;-45
2022/01/06 07:10:20;;;;;;;14.55;2.78;;;;;;;;;;5092929;28;20044;-45
2022/01/06 07:12:46;;;;;;;17.48;3.10;;;;;;;;;;5092811;28;20066;-46
2022/01/06 07:15:17;;;;;;;11.50;2.47;;;;;;;;;;5093286;28;20032;-46
2022/01/06 07:17:43;;;;;;;14.90;2.97;;;;;;;;;;5093021;28;20089;-45
2022/01/06 07:20:10;;;;;;;15.15;3.00;;;;;;;;;;5092690;28;20086;-46
2022/01/06 07:22:45;;;;;;;17.38;3.67;;;;;;;;;;5092442;28;20043;-45
2022/01/06 07:25:21;;;;;;;15.90;3.03;;;;;;;;;;5092879;28;20076;-48
2022/01/06 07:27:47;;;;;;;13.77;3.05;;;;;;;;;;5093245;28;20450;-46
2022/01/06 07:30:13;;;;;;;17.40;3.72;;;;;;;;;;5092704;28;20044;-45
2022/01/06 07:32:49;;;;;;;10.00;3.05;;;;;;;;;;5074093;28;20401;-45
2022/01/06 07:35:16;;;;;;;9.90;2.58;;;;;;;;;;5092448;28;20043;-46
2022/01/06 07:37:51;;;;;;;12.65;2.85;;;;;;;;;;5092463;28;20047;-45
2022/01/06 07:40:19;;;;;;;14.82;2.95;;;;;;;;;;5092363;28;20086;-47
2022/01/06 07:42:45;;;;;;;16.90;3.70;;;;;;;;;;5091861;28;20040;-46
2022/01/06 07:45:20;;;;;;;14.60;3.38;;;;;;;;;;5090948;28;20036;-45
2022/01/06 07:48:02;;;;;;;13.60;2.95;;;;;;;;;;5092413;28;20082;-46
2022/01/06 07:50:30;;;;;;;19.58;3.75;;;;;;;;;;5092238;28;20048;-45
2022/01/06 07:52:56;;;;;;;14.05;3.03;;;;;;;;;;5092274;28;20504;-46
2022/01/06 07:55:22;;;;;;;13.73;3.53;;;;;;;;;;5091854;28;20081;-46
2022/01/06 07:57:54;;;;;;;20.25;4.70;;;;;;;;;;5092206;28;20040;-46
2022/01/06 08:00:26;;;;;;;37.15;12.63;;;;;;;;;;5073691;28;20127;-46
2022/01/06 08:02:52;;;;;;;94.30;32.72;;;;;;;;;;5091880;28;20043;-46
2022/01/06 08:05:22;;;;;;;31.63;9.20;;;;;;;;;;5092116;28;20040;-46
2022/01/06 08:07:57;;;;;;;22.15;4.93;;;;;;;;;;5092206;28;20076;-47
2022/01/06 08:10:23;;;;;;;110.97;44.13;;;;;;;;;;5092244;28;20051;-46
2022/01/06 08:13:16;;;;;;;61.40;23.08;;;;;;;;;;5075235;28;20567;-46
2022/01/06 08:15:42;;;;;;;46.97;17.15;;;;;;;;;;5092378;28;20040;-46
2022/01/06 08:18:08;;;;;;;52.47;20.67;;;;;;;;;;5092171;28;20469;-46
2022/01/06 08:20:36;;;;;;;37.13;15.10;;;;;;;;;;5092070;28;20062;-46
2022/01/06 08:23:05;;;;;;;35.92;13.00;;;;;;;;;;5091675;28;20474;-47
2022/01/06 08:25:32;;;;;;;21.48;7.10;;;;;;;;;;5091923;28;20090;-48
2022/01/06 08:27:58;;;;;;;39.50;15.70;;;;;;;;;;5091426;28;20512;-47
2022/01/06 08:30:24;;;;;;;26.63;8.27;;;;;;;;;;5091890;28;20047;-46
2022/01/06 08:32:50;;;;;;;26.45;7.78;;;;;;;;;;5091438;28;20040;-46
2022/01/06 08:35:34;;;;;;;16.70;6.60;;;;;;;;;;5073103;28;20048;-47
2022/01/06 08:38:03;;;;;;;25.02;8.30;;;;;;;;;;5091638;28;20044;-46
2022/01/06 08:40:29;;;;;;;15.88;6.30;;;;;;;;;;5091057;28;20405;-45
2022/01/06 08:42:55;;;;;;;20.08;6.60;;;;;;;;;;5090736;28;20469;-48
2022/01/06 08:45:21;;;;;;;17.27;4.65;;;;;;;;;;5091322;28;20131;-46
2022/01/06 08:47:48;;;;;;;17.08;4.55;;;;;;;;;;5073169;28;20138;-50
2022/01/06 08:50:14;;;;;;;14.35;4.45;;;;;;;;;;5087778;28;20052;-45
2022/01/06 08:52:40;;;;;;;19.17;5.85;;;;;;;;;;5090887;28;20040;-45
2022/01/06 08:55:15;;;;;;;20.67;5.55;;;;;;;;;;5090324;28;20075;-48
2022/01/06 08:57:50;;;;;;;16.90;5.80;;;;;;;;;;5091719;28;20434;-46
2022/01/06 09:00:16;;;;;;;23.02;7.18;;;;;;;;;;5091715;28;20040;-44
2022/01/06 09:02:42;;;;;;;23.33;9.05;;;;;;;;;;5092004;28;20072;-45
2022/01/06 09:05:10;;;;;;;19.58;8.77;;;;;;;;;;5091980;28;20047;-46
2022/01/06 09:07:36;;;;;;;23.60;8.48;;;;;;;;;;5091031;28;20043;-47
2022/01/06 09:10:04;;;;;;;24.02;6.78;;;;;;;;;;5091452;28;20545;-46
2022/01/06 09:12:30;;;;;;;21.92;6.72;;;;;;;;;;5072731;28;20397;-47
2022/01/06 09:14:56;;;;;;;22.80;6.43;;;;;;;;;;5090746;28;20119;-48
2022/01/06 09:17:22;;;;;;;16.38;5.38;;;;;;;;;;5090652;28;20085;-47
2022/01/06 09:19:48;;;;;;;15.68;5.25;;;;;;;;;;5090612;28;20044;-47
2022/01/06 09:22:14;;;;;;;15.88;5.57;;;;;;;;;;5090701;28;20043;-47
2022/01/06 09:24:41;;;;;;;18.25;6.10;;;;;;;;;;5090598;28;20146;-49
2022/01/06 09:27:07;;;;;;;19.10;5.05;;;;;;;;;;5090867;28;20488;-46
2022/01/06 09:29:33;;;;;;;13.68;4.68;;;;;;;;;;5072620;28;20051;-46
2022/01/06 09:31:59;;;;;;;26.20;6.90;;;;;;;;;;5090110;28;20078;-47
2022/01/06 09:34:28;;;;;;;13.27;5.32;;;;;;;;;;5090829;28;20046;-45
2022/01/06 09:36:54;;;;;;;16.98;5.82;;;;;;;;;;5072260;28;20079;-46
2022/01/06 09:39:20;;;;;;;18.33;5.68;;;;;;;;;;5090648;28;20040;-46
2022/01/06 09:41:48;;;;;;;22.95;9.68;;;;;;;;;;5090113;28;20121;-46
2022/01/06 09:44:16;;;;;;;17.85;6.32;;;;;;;;;;5072355;28;20040;-46
2022/01/06 09:46:43;;;;;;;16.50;4.22;;;;;;;;;;5090404;28;20040;-48
2022/01/06 09:49:09;;;;;;;17.83;5.20;;;;;;;;;;5089898;28;20043;-48
2022/01/06 09:51:35;;;;;;;11.68;4.03;;;;;;;;;;5089805;28;20189;-47
2022/01/06 09:54:02;;;;;;;18.02;6.47;;;;;;;;;;5090318;28;20052;-47
2022/01/06 09:56:29;;;;;;;18.80;7.47;;;;;;;;;;5090235;28;20044;-45
2022/01/06 09:58:55;;;;;;;78.00;31.90;;;;;;;;;;5089897;28;20040;-48
2022/01/06 10:01:24;;;;;;;63.35;27.58;;;;;;;;;;5089619;28;20097;-46
2022/01/06 10:03:50;;;;;;;26.05;9.00;;;;;;;;;;5090197;28;20036;-46
2022/01/06 10:06:18;;;;;;;18.75;6.47;;;;;;;;;;5090603;28;20111;-46
2022/01/06 10:08:50;;;;;;;18.50;7.07;;;;;;;;;;5093084;28;20032;-47
2022/01/06 10:11:18;;;;;;;20.25;8.07;;;;;;;;;;5094201;28;20089;-46
2022/01/06 10:13:46;;;;;;;25.88;9.90;;;;;;;;;;5094430;28;20533;-47
2022/01/06 10:16:20;;;;;;;18.92;7.53;;;;;;;;;;5094018;28;20040;-48
2022/01/06 10:19:04;;;;;;;18.80;7.30;;;;;;;;;;5094468;28;20456;-46
2022/01/06 10:21:32;;;;;;;25.20;14.15;;;;;;;;;;5093978;28;20500;-46
2022/01/06 10:24:01;;;;;;;17.23;6.55;;;;;;;;;;5094205;28;20036;-47
2022/01/06 10:26:27;;;;;;;20.45;6.18;;;;;;;;;;5076003;28;20035;-47
2022/01/06 10:28:53;;;;;;;11.95;3.97;;;;;;;;;;5094296;28;20047;-47
2022/01/06 10:31:23;;;;;;;14.63;4.30;;;;;;;;;;5094437;28;20032;-47
2022/01/06 10:33:49;;;;;;;17.50;4.65;;;;;;;;;;5094754;28;20043;-46
2022/01/06 10:36:16;;;;;;;11.63;5.68;;;;;;;;;;5093608;28;20048;-48
2022/01/06 10:38:42;;;;;;;14.63;4.60;;;;;;;;;;5093699;28;20040;-48
2022/01/06 10:41:15;;;;;;;14.88;4.78;;;;;;;;;;5093059;28;20035;-46
2022/01/06 10:43:42;;;;;;;14.55;5.18;;;;;;;;;;5093816;28;20044;-46
2022/01/06 10:46:08;;;;;;;13.70;4.22;;;;;;;;;;5075350;28;20520;-46
2022/01/06 10:48:35;;;;;;;15.48;4.07;;;;;;;;;;5075128;28;20066;-46
2022/01/06 10:51:02;;;;;;;17.58;3.78;;;;;;;;;;5092986;28;20130;-46
2022/01/06 10:53:28;;;;;;;18.38;4.90;;;;;;;;;;5092956;28;20088;-46
2022/01/06 10:55:55;;;;;;;14.07;6.00;;;;;;;;;;5092781;28;20141;-47
2022/01/06 10:58:25;;;;;;;14.07;5.55;;;;;;;;;;5093097;28;20055;-47
2022/01/06 11:00:58;;;;;;;13.57;3.25;;;;;;;;;;5093012;28;20459;-47
2022/01/06 11:03:28;;;;;;;11.23;3.90;;;;;;;;;;5093051;28;20038;-46
2022/01/06 11:05:59;;;;;;;15.98;4.70;;;;;;;;;;5075138;28;20425;-46
2022/01/06 11:08:27;;;;;;;10.43;4.45;;;;;;;;;;5092783;28;20043;-47
2022/01/06 11:13:33;;;;;;;16.70;5.93;;;;;;;;;;5093471;28;20136;-47
2022/01/06 11:15:59;;;;;;;19.30;8.38;;;;;;;;;;5093502;28;20044;-47
2022/01/06 11:18:26;;;;;;;18.05;7.15;;;;;;;;;;5093139;28;20044;-46
2022/01/06 11:20:53;;;;;;;16.65;6.60;;;;;;;;;;5093096;28;20079;-51
2022/01/06 11:23:22;;;;;;;14.10;5.90;;;;;;;;;;5093816;28;20090;-47
2022/01/06 11:26:02;;;;;;;13.68;4.78;;;;;;;;;;5075170;28;20036;-46
2022/01/06 11:28:30;;;;;;;15.02;4.53;;;;;;;;;;5093069;28;20479;-47
2022/01/06 11:30:59;;;;;;;11.68;4.30;;;;;;;;;;5092885;28;20040;-47
2022/01/06 11:33:25;;;;;;;13.65;5.03;;;;;;;;;;5074694;28;20049;-48
2022/01/06 11:35:52;;;;;;;10.07;3.28;;;;;;;;;;5092896;28;20043;-48
2022/01/06 11:38:20;;;;;;;13.88;7.32;;;;;;;;;;5093101;28;20042;-47
2022/01/06 11:40:47;;;;;;;13.10;4.20;;;;;;;;;;5092659;28;20051;-48
2022/01/06 11:43:13;;;;;;;13.90;3.83;;;;;;;;;;5092682;28;20523;-46
2022/01/06 11:45:39;;;;;;;12.52;3.97;;;;;;;;;;5074973;28;20431;-47
2022/01/06 11:48:16;;;;;;;12.80;4.20;;;;;;;;;;5092204;28;20174;-48
2022/01/06 11:50:47;;;;;;;14.80;4.03;;;;;;;;;;5092068;28;20052;-47
2022/01/06 11:53:14;;;;;;;10.88;3.63;;;;;;;;;;5091821;28;20400;-48
2022/01/06 11:55:41;;;;;;;14.75;3.53;;;;;;;;;;5092141;28;20040;-48
2022/01/06 11:58:09;;;;;;;14.77;4.28;;;;;;;;;;5091783;28;20040;-49
2022/01/06 12:00:37;;;;;;;9.07;3.58;;;;;;;;;;5091558;28;20492;-47
2022/01/06 12:03:09;;;;;;;11.63;4.35;;;;;;;;;;5091526;28;20046;-47
2022/01/06 12:05:48;;;;;;;14.45;4.28;;;;;;;;;;5091817;28;20044;-47
2022/01/06 12:08:14;;;;;;;11.80;4.55;;;;;;;;;;5091800;28;20036;-48
2022/01/06 12:10:44;;;;;;;15.02;3.78;;;;;;;;;;5091700;28;20062;-48
2022/01/06 12:13:11;;;;;;;13.35;3.53;;;;;;;;;;5091698;28;20069;-48
2022/01/06 12:15:56;;;;;;;10.50;3.00;;;;;;;;;;5091758;28;20043;-49
2022/01/06 12:18:23;;;;;;;11.82;2.97;;;;;;;;;;5091937;28;20119;-47
2022/01/06 12:20:49;;;;;;;13.63;3.70;;;;;;;;;;5091339;28;20051;-48
2022/01/06 12:23:19;;;;;;;17.00;3.67;;;;;;;;;;5090961;28;20036;-49
2022/01/06 12:25:59;;;;;;;11.70;3.60;;;;;;;;;;5091305;28;20039;-47
2022/01/06 12:28:25;;;;;;;10.52;2.97;;;;;;;;;;5091884;28;20079;-48
2022/01/06 12:31:02;;;;;;;13.38;3.80;;;;;;;;;;5091177;28;20189;-48
2022/01/06 12:33:30;;;;;;;11.20;4.05;;;;;;;;;;5073148;28;20054;-48
2022/01/06 12:35:57;;;;;;;14.05;4.03;;;;;;;;;;5091423;28;20051;-50
2022/01/06 12:38:41;;;;;;;13.60;4.35;;;;;;;;;;5091052;28;20520;-49
2022/01/06 12:41:11;;;;;;;;;;;;;;;;;;5091804;28;20037;-47
2022/01/06 12:43:40;;;;;;;11.55;3.90;;;;;;;;;;5091645;28;20019;-48
2022/01/06 12:46:09;;;;;;;13.70;5.13;;;;;;;;;;5091199;28;20044;-47
2022/01/06 12:48:48;;;;;;;9.70;3.38;;;;;;;;;;5091090;28;20036;-48
2022/01/06 12:51:32;;;;;;;10.32;3.22;;;;;;;;;;5098263;28;20023;-51
2022/01/06 12:54:01;;;;;;;;;;;;;;;;;;5103467;28;20038;-48
2022/01/06 12:56:35;;;;;;;14.85;5.88;;;;;;;;;;5111284;28;20067;-50
2022/01/06 12:59:06;;;;;;;26.02;11.85;;;;;;;;;;5111087;28;20109;-52
2022/01/06 13:01:34;;;;;;;16.65;6.15;;;;;;;;;;5109229;28;20508;-47
2022/01/06 13:04:00;;;;;;;10.10;3.97;;;;;;;;;;5111178;28;20039;-47
2022/01/06 13:06:29;;;;;;;13.00;4.25;;;;;;;;;;5110945;28;20461;-48
2022/01/06 13:08:57;;;;;;;14.32;4.65;;;;;;;;;;5110915;28;20515;-48
2022/01/06 13:11:25;;;;;;;11.30;3.42;;;;;;;;;;5110191;28;20476;-48
2022/01/06 13:14:05;;;;;;;11.48;3.42;;;;;;;;;;5111384;28;20036;-48
2022/01/06 13:16:33;;;;;;;12.50;3.25;;;;;;;;;;5111054;28;20031;-49
2022/01/06 13:19:15;;;;;;;15.43;3.63;;;;;;;;;;5110048;28;20040;-47
2022/01/06 13:21:51;;;;;;;13.23;3.90;;;;;;;;;;5110063;28;20050;-48
2022/01/06 13:24:18;;;;;;;11.38;4.07;;;;;;;;;;5111148;28;20043;-48
2022/01/06 13:26:55;;;;;;;11.02;3.80;;;;;;;;;;5092711;28;20050;-48
2022/01/06 13:29:32;;;;;;;11.85;4.30;;;;;;;;;;5110715;28;20558;-49
2022/01/06 13:32:06;;;;;;;14.63;4.72;;;;;;;;;;5110246;28;20373;-49
2022/01/06 13:34:32;;;;;;;15.80;5.32;;;;;;;;;;5110697;28;20048;-47
2022/01/06 13:37:06;;;;;;;18.75;6.60;;;;;;;;;;5110620;28;20043;-50
2022/01/06 13:39:35;;;;;;;;;;;;;;;;;;5111111;28;20050;-47
2022/01/06 13:42:01;;;;;;;11.48;5.80;;;;;;;;;;5110449;28;20408;-47
2022/01/06 13:44:29;;;;;;;11.50;4.20;;;;;;;;;;5092819;28;20400;-48
2022/01/06 13:47:16;;;;;;;10.02;4.00;;;;;;;;;;5110362;28;20431;-49
2022/01/06 13:52:33;;;;;;;15.95;4.63;;;;;;;;;;5109189;28;20039;-47
2022/01/06 13:55:02;;;;;;;13.63;4.38;;;;;;;;;;5092340;28;20086;-47
2022/01/06 13:57:29;;;;;;;12.85;4.03;;;;;;;;;;5110666;28;20040;-48
2022/01/06 13:59:57;;;;;;;14.90;3.63;;;;;;;;;;5110578;28;20046;-47
2022/01/06 14:02:23;;;;;;;12.63;3.97;;;;;;;;;;5110124;28;20477;-49
2022/01/06 14:04:50;;;;;;;10.55;3.05;;;;;;;;;;5110465;28;20035;-48
2022/01/06 14:07:18;;;;;;;23.92;12.13;;;;;;;;;;5110139;28;20168;-47
2022/01/06 14:09:45;;;;;;;25.90;10.32;;;;;;;;;;5110683;28;20098;-48
2022/01/06 14:12:14;;;;;;;22.92;7.30;;;;;;;;;;5109846;28;20058;-47
2022/01/06 14:14:46;;;;;;;9.73;3.30;;;;;;;;;;5110343;28;20073;-47
2022/01/06 14:17:12;;;;;;;13.43;4.50;;;;;;;;;;5110677;28;20056;-48
2022/01/06 14:19:40;;;;;;;11.63;3.00;;;;;;;;;;5109321;28;20059;-48
2022/01/06 14:22:10;;;;;;;11.88;3.08;;;;;;;;;;5109086;28;20067;-48
2022/01/06 14:24:37;;;;;;;15.02;4.55;;;;;;;;;;5110130;28;20544;-51
2022/01/06 14:27:06;;;;;;;12.73;3.45;;;;;;;;;;5110218;28;20405;-47
2022/01/06 14:29:32;;;;;;;12.95;3.50;;;;;;;;;;5110396;28;20035;-47
2022/01/06 14:31:59;;;;;;;14.27;3.53;;;;;;;;;;5110542;28;20050;-46
2022/01/06 14:34:25;;;;;;;12.60;4.25;;;;;;;;;;5110166;28;20039;-46
2022/01/06 14:36:51;;;;;;;14.20;3.30;;;;;;;;;;5110260;28;20051;-45
2022/01/06 14:39:18;;;;;;;8.60;3.33;;;;;;;;;;5110383;28;20100;-49
2022/01/06 14:41:44;;;;;;;8.40;3.05;;;;;;;;;;5110102;28;20047;-48
2022/01/06 14:44:10;;;;;;;12.23;3.80;;;;;;;;;;5110569;28;20400;-46
2022/01/06 14:46:37;;;;;;;13.15;3.75;;;;;;;;;;5110545;28;20038;-45
2022/01/06 14:49:04;;;;;;;13.82;4.47;;;;;;;;;;5110406;28;20036;-47
2022/01/06 14:51:34;;;;;;;12.32;4.50;;;;;;;;;;5110293;28;20519;-48
2022/01/06 14:54:05;;;;;;;17.88;4.97;;;;;;;;;;5110887;28;20058;-47
2022/01/06 14:56:39;;;;;;;17.20;5.70;;;;;;;;;;5111454;28;20061;-47
2022/01/06 14:59:09;;;;;;;15.63;3.95;;;;;;;;;;5114157;28;20058;-46